sensor_id;sensor_type;location;lat;lon;timestamp;temperature;humidity
25504;DHT22;13410;52.114;5.718;2022-10-17T00:00:16;17.90;99.90
25504;DHT22;13410;52.114;5.718;2022-10-17T00:02:47;18.20;99.90
25504;DHT22;13410;52.114;5.718;2022-10-17T00:05:19;18.00;99.90
25504;DHT22;13410;52.114;5.718;2022-10-17T00:07:50;18.00;99.90
25504;DHT22;13410;52.114;5.718;2022-10-17T00:10:17;18.00;99.90
25504;DHT22;13410;52.114;5.718;2022-10-17T00:12:43;18.00;99.90
25504;DHT22;13410;52.114;5.718;2022-10-17T00:15:13;18.00;99.90
25504;DHT22;13410;52.114;5.718;2022-10-17T00:17:42;18.10;99.90
25504;DHT22;13410;52.114;5.718;2022-10-17T00:20:14;18.00;99.90
25504;DHT22;13410;52.114;5.718;2022-10-17T00:22:42;18.10;99.90
25504;DHT22;13410;52.114;5.718;2022-10-17T00:25:23;18.10;99.90
25504;DHT22;13410;52.114;5.718;2022-10-17T00:28:03;18.20;99.90
25504;DHT22;13410;52.114;5.718;2022-10-17T00:30:53;18.00;99.90
25504;DHT22;13410;52.114;5.718;2022-10-17T00:33:33;17.90;99.90
25504;DHT22;13410;52.114;5.718;2022-10-17T00:36:24;17.70;99.90
25504;DHT22;13410;52.114;5.718;2022-10-17T00:39:35;17.70;99.90
25504;DHT22;13410;52.114;5.718;2022-10-17T00:48:18;17.70;99.90
25504;DHT22;13410;52.114;5.718;2022-10-17T00:50:58;17.80;99.90
25504;DHT22;13410;52.114;5.718;2022-10-17T00:53:24;17.70;99.90
25504;DHT22;13410;52.114;5.718;2022-10-17T00:56:12;17.90;99.90
25504;DHT22;13410;52.114;5.718;2022-10-17T00:58:48;17.90;99.90
25504;DHT22;13410;52.114;5.718;2022-10-17T01:01:19;18.00;99.90
25504;DHT22;13410;52.114;5.718;2022-10-17T01:03:45;18.00;99.90
25504;DHT22;13410;52.114;5.718;2022-10-17T01:06:32;18.10;99.90
25504;DHT22;13410;52.114;5.718;2022-10-17T01:09:19;18.10;99.90
25504;DHT22;13410;52.114;5.718;2022-10-17T01:12:16;18.10;99.90
25504;DHT22;13410;52.114;5.718;2022-10-17T01:22:01;18.10;99.90
25504;DHT22;13410;52.114;5.718;2022-10-17T01:24:45;18.10;99.90
25504;DHT22;13410;52.114;5.718;2022-10-17T01:36:27;18.00;99.90
25504;DHT22;13410;52.114;5.718;2022-10-17T01:44:54;18.00;99.90
25504;DHT22;13410;52.114;5.718;2022-10-17T01:47:30;18.10;99.90
25504;DHT22;13410;52.114;5.718;2022-10-17T01:53:46;18.10;99.90
25504;DHT22;13410;52.114;5.718;2022-10-17T01:56:45;18.10;99.90
25504;DHT22;13410;52.114;5.718;2022-10-17T01:59:48;18.20;99.90
25504;DHT22;13410;52.114;5.718;2022-10-17T02:02:20;18.30;99.90
25504;DHT22;13410;52.114;5.718;2022-10-17T02:04:53;18.20;99.90
25504;DHT22;13410;52.114;5.718;2022-10-17T02:07:50;18.30;99.90
25504;DHT22;13410;52.114;5.718;2022-10-17T02:21:40;18.20;99.90
25504;DHT22;13410;52.114;5.718;2022-10-17T02:30:59;18.30;99.90
25504;DHT22;13410;52.114;5.718;2022-10-17T02:34:01;18.50;99.90
25504;DHT22;13410;52.114;5.718;2022-10-17T02:36:38;18.40;99.90
25504;DHT22;13410;52.114;5.718;2022-10-17T02:39:26;18.40;99.90
25504;DHT22;13410;52.114;5.718;2022-10-17T02:42:10;18.20;99.90
25504;DHT22;13410;52.114;5.718;2022-10-17T02:44:45;18.40;99.90
25504;DHT22;13410;52.114;5.718;2022-10-17T02:47:36;18.50;99.90
25504;DHT22;13410;52.114;5.718;2022-10-17T02:53:07;18.40;99.90
25504;DHT22;13410;52.114;5.718;2022-10-17T02:55:50;18.50;99.90
25504;DHT22;13410;52.114;5.718;2022-10-17T02:58:29;18.50;99.90
25504;DHT22;13410;52.114;5.718;2022-10-17T03:01:15;18.60;99.90
25504;DHT22;13410;52.114;5.718;2022-10-17T03:03:45;18.60;99.90
25504;DHT22;13410;52.114;5.718;2022-10-17T03:06:40;18.70;99.90
25504;DHT22;13410;52.114;5.718;2022-10-17T03:09:09;18.70;99.90
25504;DHT22;13410;52.114;5.718;2022-10-17T03:11:53;18.60;99.90
25504;DHT22;13410;52.114;5.718;2022-10-17T03:14:48;18.70;99.90
25504;DHT22;13410;52.114;5.718;2022-10-17T03:17:15;18.80;99.90
25504;DHT22;13410;52.114;5.718;2022-10-17T03:19:41;18.70;99.90
25504;DHT22;13410;52.114;5.718;2022-10-17T03:22:07;18.90;99.90
25504;DHT22;13410;52.114;5.718;2022-10-17T03:24:35;19.00;99.90
25504;DHT22;13410;52.114;5.718;2022-10-17T03:27:04;19.00;99.90
25504;DHT22;13410;52.114;5.718;2022-10-17T03:29:44;19.00;99.90
25504;DHT22;13410;52.114;5.718;2022-10-17T03:32:31;19.00;99.90
25504;DHT22;13410;52.114;5.718;2022-10-17T03:35:03;19.00;99.90
25504;DHT22;13410;52.114;5.718;2022-10-17T03:37:32;18.90;99.90
25504;DHT22;13410;52.114;5.718;2022-10-17T03:40:16;19.10;99.90
25504;DHT22;13410;52.114;5.718;2022-10-17T03:42:42;19.20;99.90
25504;DHT22;13410;52.114;5.718;2022-10-17T03:45:14;19.20;99.90
25504;DHT22;13410;52.114;5.718;2022-10-17T03:47:40;19.30;99.90
25504;DHT22;13410;52.114;5.718;2022-10-17T03:50:06;19.40;99.90
25504;DHT22;13410;52.114;5.718;2022-10-17T03:52:31;19.40;99.90
25504;DHT22;13410;52.114;5.718;2022-10-17T03:54:57;19.50;99.90
25504;DHT22;13410;52.114;5.718;2022-10-17T03:57:23;19.50;99.90
25504;DHT22;13410;52.114;5.718;2022-10-17T03:59:49;19.70;99.90
25504;DHT22;13410;52.114;5.718;2022-10-17T04:02:15;19.70;99.90
25504;DHT22;13410;52.114;5.718;2022-10-17T04:04:41;19.60;99.90
25504;DHT22;13410;52.114;5.718;2022-10-17T04:07:07;19.60;99.90
25504;DHT22;13410;52.114;5.718;2022-10-17T04:09:32;19.70;99.90
25504;DHT22;13410;52.114;5.718;2022-10-17T04:11:58;19.90;99.90
25504;DHT22;13410;52.114;5.718;2022-10-17T04:14:24;19.70;99.90
25504;DHT22;13410;52.114;5.718;2022-10-17T04:16:49;19.80;99.90
25504;DHT22;13410;52.114;5.718;2022-10-17T04:19:15;20.00;99.90
25504;DHT22;13410;52.114;5.718;2022-10-17T04:21:40;19.90;99.90
25504;DHT22;13410;52.114;5.718;2022-10-17T04:24:10;19.90;99.90
25504;DHT22;13410;52.114;5.718;2022-10-17T04:26:36;20.00;99.90
25504;DHT22;13410;52.114;5.718;2022-10-17T04:29:11;20.00;99.90
25504;DHT22;13410;52.114;5.718;2022-10-17T04:31:57;20.00;99.90
25504;DHT22;13410;52.114;5.718;2022-10-17T04:34:25;20.00;99.90
25504;DHT22;13410;52.114;5.718;2022-10-17T04:36:51;19.80;99.90
25504;DHT22;13410;52.114;5.718;2022-10-17T04:39:17;19.70;99.90
25504;DHT22;13410;52.114;5.718;2022-10-17T04:41:43;20.10;99.90
25504;DHT22;13410;52.114;5.718;2022-10-17T04:44:09;19.90;99.90
25504;DHT22;13410;52.114;5.718;2022-10-17T04:46:40;19.80;99.90
25504;DHT22;13410;52.114;5.718;2022-10-17T04:49:06;19.70;99.90
25504;DHT22;13410;52.114;5.718;2022-10-17T04:51:40;19.80;99.90
25504;DHT22;13410;52.114;5.718;2022-10-17T04:54:20;19.90;99.90
25504;DHT22;13410;52.114;5.718;2022-10-17T04:56:49;20.10;99.90
25504;DHT22;13410;52.114;5.718;2022-10-17T04:59:17;20.00;99.90
25504;DHT22;13410;52.114;5.718;2022-10-17T05:01:50;20.00;99.90
25504;DHT22;13410;52.114;5.718;2022-10-17T05:04:16;20.10;99.90
25504;DHT22;13410;52.114;5.718;2022-10-17T05:06:44;20.10;99.90
25504;DHT22;13410;52.114;5.718;2022-10-17T05:11:54;20.10;99.90
25504;DHT22;13410;52.114;5.718;2022-10-17T05:14:29;20.20;99.90
25504;DHT22;13410;52.114;5.718;2022-10-17T05:16:58;20.20;99.90
25504;DHT22;13410;52.114;5.718;2022-10-17T05:19:26;20.20;99.90
25504;DHT22;13410;52.114;5.718;2022-10-17T05:21:57;20.30;99.90
25504;DHT22;13410;52.114;5.718;2022-10-17T05:24:26;20.20;99.90
25504;DHT22;13410;52.114;5.718;2022-10-17T05:26:52;20.10;99.90
25504;DHT22;13410;52.114;5.718;2022-10-17T05:29:20;20.10;99.90
25504;DHT22;13410;52.114;5.718;2022-10-17T05:31:49;20.10;99.90
25504;DHT22;13410;52.114;5.718;2022-10-17T05:34:23;20.00;99.90
25504;DHT22;13410;52.114;5.718;2022-10-17T05:36:52;20.00;99.90
25504;DHT22;13410;52.114;5.718;2022-10-17T05:39:36;20.10;99.90
25504;DHT22;13410;52.114;5.718;2022-10-17T05:42:02;20.00;99.90
25504;DHT22;13410;52.114;5.718;2022-10-17T05:44:28;20.00;99.90
25504;DHT22;13410;52.114;5.718;2022-10-17T05:47:01;20.10;99.90
25504;DHT22;13410;52.114;5.718;2022-10-17T05:49:29;20.10;99.90
25504;DHT22;13410;52.114;5.718;2022-10-17T05:55:07;20.00;99.90
25504;DHT22;13410;52.114;5.718;2022-10-17T05:57:58;20.10;99.90
25504;DHT22;13410;52.114;5.718;2022-10-17T06:00:43;19.90;99.90
25504;DHT22;13410;52.114;5.718;2022-10-17T06:03:20;20.00;99.90
25504;DHT22;13410;52.114;5.718;2022-10-17T06:05:48;20.20;99.90
25504;DHT22;13410;52.114;5.718;2022-10-17T06:11:01;20.10;99.90
25504;DHT22;13410;52.114;5.718;2022-10-17T06:13:37;20.20;99.90
25504;DHT22;13410;52.114;5.718;2022-10-17T06:16:03;19.90;99.90
25504;DHT22;13410;52.114;5.718;2022-10-17T06:18:29;19.70;99.90
25504;DHT22;13410;52.114;5.718;2022-10-17T06:21:01;19.80;99.90
25504;DHT22;13410;52.114;5.718;2022-10-17T06:23:30;20.00;99.90
25504;DHT22;13410;52.114;5.718;2022-10-17T06:26:02;20.10;99.90
25504;DHT22;13410;52.114;5.718;2022-10-17T06:28:32;20.10;99.90
25504;DHT22;13410;52.114;5.718;2022-10-17T06:30:58;20.20;99.90
25504;DHT22;13410;52.114;5.718;2022-10-17T06:33:26;20.10;99.90
25504;DHT22;13410;52.114;5.718;2022-10-17T06:35:58;20.20;99.90
25504;DHT22;13410;52.114;5.718;2022-10-17T06:38:24;20.20;99.90
25504;DHT22;13410;52.114;5.718;2022-10-17T06:40:50;20.20;99.90
25504;DHT22;13410;52.114;5.718;2022-10-17T06:43:16;20.10;99.90
25504;DHT22;13410;52.114;5.718;2022-10-17T06:45:42;20.10;99.90
25504;DHT22;13410;52.114;5.718;2022-10-17T06:48:09;20.20;99.90
25504;DHT22;13410;52.114;5.718;2022-10-17T06:50:38;20.20;99.90
25504;DHT22;13410;52.114;5.718;2022-10-17T06:53:04;20.30;99.90
25504;DHT22;13410;52.114;5.718;2022-10-17T06:55:31;20.40;99.90
25504;DHT22;13410;52.114;5.718;2022-10-17T06:58:02;20.40;99.90
25504;DHT22;13410;52.114;5.718;2022-10-17T07:00:35;20.50;99.90
25504;DHT22;13410;52.114;5.718;2022-10-17T07:03:07;20.70;99.90
25504;DHT22;13410;52.114;5.718;2022-10-17T07:05:38;20.60;99.90
25504;DHT22;13410;52.114;5.718;2022-10-17T07:08:07;20.70;99.90
25504;DHT22;13410;52.114;5.718;2022-10-17T07:10:33;20.60;99.90
25504;DHT22;13410;52.114;5.718;2022-10-17T07:13:03;20.70;99.90
25504;DHT22;13410;52.114;5.718;2022-10-17T07:15:28;20.90;99.90
25504;DHT22;13410;52.114;5.718;2022-10-17T07:17:54;20.80;99.90
25504;DHT22;13410;52.114;5.718;2022-10-17T07:20:19;20.80;99.90
25504;DHT22;13410;52.114;5.718;2022-10-17T07:22:45;20.80;99.90
25504;DHT22;13410;52.114;5.718;2022-10-17T07:25:11;20.80;99.90
25504;DHT22;13410;52.114;5.718;2022-10-17T07:27:39;20.80;99.90
25504;DHT22;13410;52.114;5.718;2022-10-17T07:30:05;20.90;99.90
25504;DHT22;13410;52.114;5.718;2022-10-17T07:32:33;20.90;99.90
25504;DHT22;13410;52.114;5.718;2022-10-17T07:34:58;20.90;99.90
25504;DHT22;13410;52.114;5.718;2022-10-17T07:37:24;21.00;99.90
25504;DHT22;13410;52.114;5.718;2022-10-17T07:39:49;21.10;99.90
25504;DHT22;13410;52.114;5.718;2022-10-17T07:42:18;21.20;99.90
25504;DHT22;13410;52.114;5.718;2022-10-17T07:44:44;20.90;99.90
25504;DHT22;13410;52.114;5.718;2022-10-17T07:47:11;20.80;99.90
25504;DHT22;13410;52.114;5.718;2022-10-17T07:49:37;20.90;99.90
25504;DHT22;13410;52.114;5.718;2022-10-17T07:52:09;20.90;99.90
25504;DHT22;13410;52.114;5.718;2022-10-17T07:54:35;20.90;99.90
25504;DHT22;13410;52.114;5.718;2022-10-17T07:57:04;21.00;99.90
25504;DHT22;13410;52.114;5.718;2022-10-17T07:59:32;21.00;99.90
25504;DHT22;13410;52.114;5.718;2022-10-17T08:01:57;21.10;99.90
25504;DHT22;13410;52.114;5.718;2022-10-17T08:04:24;21.10;99.90
25504;DHT22;13410;52.114;5.718;2022-10-17T08:06:50;21.30;99.90
25504;DHT22;13410;52.114;5.718;2022-10-17T08:09:16;21.30;99.90
25504;DHT22;13410;52.114;5.718;2022-10-17T08:11:42;21.20;99.90
25504;DHT22;13410;52.114;5.718;2022-10-17T08:14:11;21.20;99.90
25504;DHT22;13410;52.114;5.718;2022-10-17T08:16:37;21.20;99.90
25504;DHT22;13410;52.114;5.718;2022-10-17T08:19:03;21.20;99.90
25504;DHT22;13410;52.114;5.718;2022-10-17T08:21:29;21.20;99.90
25504;DHT22;13410;52.114;5.718;2022-10-17T08:24:01;21.10;99.90
25504;DHT22;13410;52.114;5.718;2022-10-17T08:26:30;21.20;99.90
25504;DHT22;13410;52.114;5.718;2022-10-17T08:28:55;21.10;99.90
25504;DHT22;13410;52.114;5.718;2022-10-17T08:31:21;21.00;99.90
25504;DHT22;13410;52.114;5.718;2022-10-17T08:33:48;20.90;99.90
25504;DHT22;13410;52.114;5.718;2022-10-17T08:36:16;21.00;99.90
25504;DHT22;13410;52.114;5.718;2022-10-17T08:38:43;21.00;99.90
25504;DHT22;13410;52.114;5.718;2022-10-17T08:41:19;21.00;99.90
25504;DHT22;13410;52.114;5.718;2022-10-17T08:46:37;21.00;99.90
25504;DHT22;13410;52.114;5.718;2022-10-17T08:49:09;21.10;99.90
25504;DHT22;13410;52.114;5.718;2022-10-17T08:51:46;21.20;99.90
25504;DHT22;13410;52.114;5.718;2022-10-17T08:54:25;21.20;99.90
25504;DHT22;13410;52.114;5.718;2022-10-17T08:56:55;21.50;99.90
25504;DHT22;13410;52.114;5.718;2022-10-17T08:59:26;21.40;99.90
25504;DHT22;13410;52.114;5.718;2022-10-17T09:02:25;21.50;99.90
25504;DHT22;13410;52.114;5.718;2022-10-17T09:05:20;21.50;99.90
25504;DHT22;13410;52.114;5.718;2022-10-17T09:10:59;21.40;99.90
25504;DHT22;13410;52.114;5.718;2022-10-17T09:13:42;21.30;99.90
25504;DHT22;13410;52.114;5.718;2022-10-17T09:19:29;21.40;99.90
25504;DHT22;13410;52.114;5.718;2022-10-17T09:22:03;21.50;99.90
25504;DHT22;13410;52.114;5.718;2022-10-17T09:24:50;21.40;99.90
25504;DHT22;13410;52.114;5.718;2022-10-17T09:27:23;21.40;99.90
25504;DHT22;13410;52.114;5.718;2022-10-17T09:29:54;21.50;99.90
25504;DHT22;13410;52.114;5.718;2022-10-17T09:32:24;21.60;99.90
25504;DHT22;13410;52.114;5.718;2022-10-17T09:34:53;21.60;99.90
25504;DHT22;13410;52.114;5.718;2022-10-17T09:37:23;21.80;99.90
25504;DHT22;13410;52.114;5.718;2022-10-17T09:39:49;21.80;99.90
25504;DHT22;13410;52.114;5.718;2022-10-17T09:42:24;21.80;99.90
25504;DHT22;13410;52.114;5.718;2022-10-17T09:47:30;21.80;99.90
25504;DHT22;13410;52.114;5.718;2022-10-17T09:49:58;22.00;99.90
25504;DHT22;13410;52.114;5.718;2022-10-17T09:55:03;21.90;99.90
25504;DHT22;13410;52.114;5.718;2022-10-17T09:57:56;21.90;99.90
25504;DHT22;13410;52.114;5.718;2022-10-17T10:00:37;21.90;99.90
25504;DHT22;13410;52.114;5.718;2022-10-17T10:03:18;21.80;99.90
25504;DHT22;13410;52.114;5.718;2022-10-17T10:08:36;21.70;99.90
25504;DHT22;13410;52.114;5.718;2022-10-17T10:11:13;21.60;99.90
25504;DHT22;13410;52.114;5.718;2022-10-17T10:13:39;21.70;99.90
25504;DHT22;13410;52.114;5.718;2022-10-17T10:16:30;21.80;99.90
25504;DHT22;13410;52.114;5.718;2022-10-17T10:18:57;21.70;99.90
25504;DHT22;13410;52.114;5.718;2022-10-17T10:21:24;21.80;99.90
25504;DHT22;13410;52.114;5.718;2022-10-17T10:24:10;21.90;99.90
25504;DHT22;13410;52.114;5.718;2022-10-17T10:26:42;22.00;99.90
25504;DHT22;13410;52.114;5.718;2022-10-17T10:31:43;22.00;99.90
25504;DHT22;13410;52.114;5.718;2022-10-17T10:34:23;22.00;99.90
25504;DHT22;13410;52.114;5.718;2022-10-17T10:37:03;22.10;99.90
25504;DHT22;13410;52.114;5.718;2022-10-17T10:39:49;22.10;99.90
25504;DHT22;13410;52.114;5.718;2022-10-17T10:42:31;22.10;99.90
25504;DHT22;13410;52.114;5.718;2022-10-17T10:45:18;22.10;99.90
25504;DHT22;13410;52.114;5.718;2022-10-17T10:47:58;22.10;99.90
25504;DHT22;13410;52.114;5.718;2022-10-17T10:50:30;22.20;99.90
25504;DHT22;13410;52.114;5.718;2022-10-17T10:53:33;22.20;99.90
25504;DHT22;13410;52.114;5.718;2022-10-17T10:56:20;22.40;99.90
25504;DHT22;13410;52.114;5.718;2022-10-17T11:02:02;22.50;99.90
25504;DHT22;13410;52.114;5.718;2022-10-17T11:04:37;22.40;99.90
25504;DHT22;13410;52.114;5.718;2022-10-17T11:07:43;22.40;99.90
25504;DHT22;13410;52.114;5.718;2022-10-17T11:12:59;22.40;99.90
25504;DHT22;13410;52.114;5.718;2022-10-17T11:15:46;22.50;99.90
25504;DHT22;13410;52.114;5.718;2022-10-17T11:20:56;22.50;99.90
25504;DHT22;13410;52.114;5.718;2022-10-17T11:23:42;22.50;99.90
25504;DHT22;13410;52.114;5.718;2022-10-17T11:26:16;22.60;99.90
25504;DHT22;13410;52.114;5.718;2022-10-17T11:28:42;22.60;99.90
25504;DHT22;13410;52.114;5.718;2022-10-17T11:31:11;22.40;99.90
25504;DHT22;13410;52.114;5.718;2022-10-17T11:36:18;22.50;99.90
25504;DHT22;13410;52.114;5.718;2022-10-17T11:39:01;22.70;99.90
25504;DHT22;13410;52.114;5.718;2022-10-17T11:41:47;22.90;99.90
25504;DHT22;13410;52.114;5.718;2022-10-17T11:44:30;23.10;99.90
25504;DHT22;13410;52.114;5.718;2022-10-17T11:47:01;23.00;99.90
25504;DHT22;13410;52.114;5.718;2022-10-17T11:49:35;23.20;99.90
25504;DHT22;13410;52.114;5.718;2022-10-17T11:54:48;23.30;99.90
25504;DHT22;13410;52.114;5.718;2022-10-17T12:03:17;23.20;99.90
25504;DHT22;13410;52.114;5.718;2022-10-17T12:05:54;23.20;99.90
25504;DHT22;13410;52.114;5.718;2022-10-17T12:13:50;23.10;99.90
25504;DHT22;13410;52.114;5.718;2022-10-17T12:21:27;23.10;99.90
25504;DHT22;13410;52.114;5.718;2022-10-17T12:23:53;23.30;99.90
25504;DHT22;13410;52.114;5.718;2022-10-17T12:26:27;23.40;99.90
25504;DHT22;13410;52.114;5.718;2022-10-17T12:28:53;23.50;99.90
25504;DHT22;13410;52.114;5.718;2022-10-17T12:33:57;23.70;99.90
25504;DHT22;13410;52.114;5.718;2022-10-17T12:49:46;23.70;99.90
25504;DHT22;13410;52.114;5.718;2022-10-17T13:00:04;23.50;99.90
25504;DHT22;13410;52.114;5.718;2022-10-17T13:02:35;23.40;99.90
25504;DHT22;13410;52.114;5.718;2022-10-17T13:05:07;23.50;99.90
25504;DHT22;13410;52.114;5.718;2022-10-17T13:07:36;23.40;99.90
25504;DHT22;13410;52.114;5.718;2022-10-17T13:10:05;23.30;99.90
25504;DHT22;13410;52.114;5.718;2022-10-17T13:12:35;23.30;99.90
25504;DHT22;13410;52.114;5.718;2022-10-17T13:15:05;23.40;99.90
25504;DHT22;13410;52.114;5.718;2022-10-17T13:17:31;23.40;99.90
25504;DHT22;13410;52.114;5.718;2022-10-17T13:19:57;23.50;99.90
25504;DHT22;13410;52.114;5.718;2022-10-17T13:22:27;23.40;99.90
25504;DHT22;13410;52.114;5.718;2022-10-17T13:25:30;23.40;99.90
25504;DHT22;13410;52.114;5.718;2022-10-17T13:28:05;23.40;99.90
25504;DHT22;13410;52.114;5.718;2022-10-17T13:30:33;23.30;99.90
25504;DHT22;13410;52.114;5.718;2022-10-17T13:33:00;23.20;99.90
25504;DHT22;13410;52.114;5.718;2022-10-17T13:35:34;23.20;99.90
25504;DHT22;13410;52.114;5.718;2022-10-17T13:38:01;23.20;99.90
25504;DHT22;13410;52.114;5.718;2022-10-17T13:40:40;23.00;99.90
25504;DHT22;13410;52.114;5.718;2022-10-17T13:43:19;23.20;99.90
25504;DHT22;13410;52.114;5.718;2022-10-17T13:46:06;23.20;99.90
25504;DHT22;13410;52.114;5.718;2022-10-17T13:48:35;23.00;99.90
25504;DHT22;13410;52.114;5.718;2022-10-17T13:51:04;23.00;99.90
25504;DHT22;13410;52.114;5.718;2022-10-17T13:58:22;23.20;99.90
25504;DHT22;13410;52.114;5.718;2022-10-17T14:00:48;23.20;99.90
25504;DHT22;13410;52.114;5.718;2022-10-17T14:03:18;23.10;99.90
25504;DHT22;13410;52.114;5.718;2022-10-17T14:06:05;23.30;99.90
25504;DHT22;13410;52.114;5.718;2022-10-17T14:08:34;23.10;99.90
25504;DHT22;13410;52.114;5.718;2022-10-17T14:11:01;23.10;99.90
25504;DHT22;13410;52.114;5.718;2022-10-17T14:13:29;23.10;99.90
25504;DHT22;13410;52.114;5.718;2022-10-17T14:16:00;23.10;99.90
25504;DHT22;13410;52.114;5.718;2022-10-17T14:18:29;23.00;99.90
25504;DHT22;13410;52.114;5.718;2022-10-17T14:20:58;23.00;99.90
25504;DHT22;13410;52.114;5.718;2022-10-17T14:23:41;22.80;99.90
25504;DHT22;13410;52.114;5.718;2022-10-17T14:26:21;23.00;99.90
25504;DHT22;13410;52.114;5.718;2022-10-17T14:29:01;23.00;99.90
25504;DHT22;13410;52.114;5.718;2022-10-17T14:31:33;23.00;99.90
25504;DHT22;13410;52.114;5.718;2022-10-17T14:34:00;23.10;99.90
25504;DHT22;13410;52.114;5.718;2022-10-17T14:36:38;23.10;99.90
25504;DHT22;13410;52.114;5.718;2022-10-17T14:39:07;23.30;99.90
25504;DHT22;13410;52.114;5.718;2022-10-17T14:41:34;23.30;99.90
25504;DHT22;13410;52.114;5.718;2022-10-17T14:44:03;23.20;99.90
25504;DHT22;13410;52.114;5.718;2022-10-17T14:46:31;23.30;99.90
25504;DHT22;13410;52.114;5.718;2022-10-17T14:49:06;23.30;99.90
25504;DHT22;13410;52.114;5.718;2022-10-17T14:51:33;23.40;99.90
25504;DHT22;13410;52.114;5.718;2022-10-17T14:54:19;23.40;99.90
25504;DHT22;13410;52.114;5.718;2022-10-17T14:56:51;23.40;99.90
25504;DHT22;13410;52.114;5.718;2022-10-17T14:59:18;23.40;99.90
25504;DHT22;13410;52.114;5.718;2022-10-17T15:01:49;23.50;99.90
25504;DHT22;13410;52.114;5.718;2022-10-17T15:04:16;23.40;99.90
25504;DHT22;13410;52.114;5.718;2022-10-17T15:06:42;23.40;99.90
25504;DHT22;13410;52.114;5.718;2022-10-17T15:09:09;23.40;99.90
25504;DHT22;13410;52.114;5.718;2022-10-17T15:11:35;23.30;99.90
25504;DHT22;13410;52.114;5.718;2022-10-17T15:14:00;23.40;99.90
25504;DHT22;13410;52.114;5.718;2022-10-17T15:16:30;23.30;99.90
25504;DHT22;13410;52.114;5.718;2022-10-17T15:18:56;23.40;99.90
25504;DHT22;13410;52.114;5.718;2022-10-17T15:21:24;23.30;99.90
25504;DHT22;13410;52.114;5.718;2022-10-17T15:23:50;23.30;99.90
25504;DHT22;13410;52.114;5.718;2022-10-17T15:26:24;23.30;99.90
25504;DHT22;13410;52.114;5.718;2022-10-17T15:28:51;23.30;99.90
25504;DHT22;13410;52.114;5.718;2022-10-17T15:31:19;23.30;99.90
25504;DHT22;13410;52.114;5.718;2022-10-17T15:33:46;23.20;99.90
25504;DHT22;13410;52.114;5.718;2022-10-17T15:38:48;23.10;99.90
25504;DHT22;13410;52.114;5.718;2022-10-17T15:41:14;23.00;99.90
25504;DHT22;13410;52.114;5.718;2022-10-17T15:43:40;23.00;99.90
25504;DHT22;13410;52.114;5.718;2022-10-17T15:46:12;23.00;99.90
25504;DHT22;13410;52.114;5.718;2022-10-17T15:48:40;23.00;99.90
25504;DHT22;13410;52.114;5.718;2022-10-17T15:51:07;22.90;99.90
25504;DHT22;13410;52.114;5.718;2022-10-17T15:53:33;22.80;99.90
25504;DHT22;13410;52.114;5.718;2022-10-17T15:55:59;22.80;99.90
25504;DHT22;13410;52.114;5.718;2022-10-17T15:58:29;22.80;99.90
25504;DHT22;13410;52.114;5.718;2022-10-17T16:00:56;22.80;99.90
25504;DHT22;13410;52.114;5.718;2022-10-17T16:03:22;22.70;99.90
25504;DHT22;13410;52.114;5.718;2022-10-17T16:05:47;22.60;99.90
25504;DHT22;13410;52.114;5.718;2022-10-17T16:08:13;22.60;99.90
25504;DHT22;13410;52.114;5.718;2022-10-17T16:10:39;22.50;99.90
25504;DHT22;13410;52.114;5.718;2022-10-17T16:13:05;22.50;99.90
25504;DHT22;13410;52.114;5.718;2022-10-17T16:15:31;22.50;99.90
25504;DHT22;13410;52.114;5.718;2022-10-17T16:17:56;22.40;99.90
25504;DHT22;13410;52.114;5.718;2022-10-17T16:20:23;22.40;99.90
25504;DHT22;13410;52.114;5.718;2022-10-17T16:22:50;22.30;99.90
25504;DHT22;13410;52.114;5.718;2022-10-17T16:25:22;22.30;99.90
25504;DHT22;13410;52.114;5.718;2022-10-17T16:27:56;22.20;99.90
25504;DHT22;13410;52.114;5.718;2022-10-17T16:30:23;22.10;99.90
25504;DHT22;13410;52.114;5.718;2022-10-17T16:32:49;22.00;99.90
25504;DHT22;13410;52.114;5.718;2022-10-17T16:35:18;21.90;99.90
25504;DHT22;13410;52.114;5.718;2022-10-17T16:37:46;21.90;99.90
25504;DHT22;13410;52.114;5.718;2022-10-17T16:40:12;21.80;99.90
25504;DHT22;13410;52.114;5.718;2022-10-17T16:42:38;21.90;99.90
25504;DHT22;13410;52.114;5.718;2022-10-17T16:45:04;21.80;99.90
25504;DHT22;13410;52.114;5.718;2022-10-17T16:47:30;21.70;99.90
25504;DHT22;13410;52.114;5.718;2022-10-17T16:49:57;21.60;99.90
25504;DHT22;13410;52.114;5.718;2022-10-17T16:52:23;21.50;99.90
25504;DHT22;13410;52.114;5.718;2022-10-17T16:54:48;21.40;99.90
25504;DHT22;13410;52.114;5.718;2022-10-17T16:57:15;21.40;99.90
25504;DHT22;13410;52.114;5.718;2022-10-17T16:59:41;21.40;99.90
25504;DHT22;13410;52.114;5.718;2022-10-17T17:02:09;21.30;99.90
25504;DHT22;13410;52.114;5.718;2022-10-17T17:04:35;21.40;99.90
25504;DHT22;13410;52.114;5.718;2022-10-17T17:07:00;21.40;99.90
25504;DHT22;13410;52.114;5.718;2022-10-17T17:09:29;21.40;99.90
25504;DHT22;13410;52.114;5.718;2022-10-17T17:11:54;21.30;99.90
25504;DHT22;13410;52.114;5.718;2022-10-17T17:14:20;21.20;99.90
25504;DHT22;13410;52.114;5.718;2022-10-17T17:16:45;21.30;99.90
25504;DHT22;13410;52.114;5.718;2022-10-17T17:19:13;21.30;99.90
25504;DHT22;13410;52.114;5.718;2022-10-17T17:21:39;21.20;99.90
25504;DHT22;13410;52.114;5.718;2022-10-17T17:24:11;21.30;99.90
25504;DHT22;13410;52.114;5.718;2022-10-17T17:26:37;21.30;99.90
25504;DHT22;13410;52.114;5.718;2022-10-17T17:29:04;21.20;99.90
25504;DHT22;13410;52.114;5.718;2022-10-17T17:31:31;21.10;99.90
25504;DHT22;13410;52.114;5.718;2022-10-17T17:33:57;21.10;99.90
25504;DHT22;13410;52.114;5.718;2022-10-17T17:36:26;21.10;99.90
25504;DHT22;13410;52.114;5.718;2022-10-17T17:38:56;21.20;99.90
25504;DHT22;13410;52.114;5.718;2022-10-17T17:41:23;21.10;99.90
25504;DHT22;13410;52.114;5.718;2022-10-17T17:43:49;21.00;99.90
25504;DHT22;13410;52.114;5.718;2022-10-17T17:46:16;21.10;99.90
25504;DHT22;13410;52.114;5.718;2022-10-17T17:48:43;21.10;99.90
25504;DHT22;13410;52.114;5.718;2022-10-17T17:51:12;21.10;99.90
25504;DHT22;13410;52.114;5.718;2022-10-17T17:53:38;21.10;99.90
25504;DHT22;13410;52.114;5.718;2022-10-17T17:56:12;21.10;99.90
25504;DHT22;13410;52.114;5.718;2022-10-17T17:58:39;21.10;99.90
25504;DHT22;13410;52.114;5.718;2022-10-17T18:01:27;21.10;99.90
25504;DHT22;13410;52.114;5.718;2022-10-17T18:03:55;21.10;99.90
25504;DHT22;13410;52.114;5.718;2022-10-17T18:06:23;21.10;99.90
25504;DHT22;13410;52.114;5.718;2022-10-17T18:08:51;21.00;99.90
25504;DHT22;13410;52.114;5.718;2022-10-17T18:11:17;21.00;99.90
25504;DHT22;13410;52.114;5.718;2022-10-17T18:13:43;21.10;99.90
25504;DHT22;13410;52.114;5.718;2022-10-17T18:16:09;21.10;99.90
25504;DHT22;13410;52.114;5.718;2022-10-17T18:18:43;21.00;99.90
25504;DHT22;13410;52.114;5.718;2022-10-17T18:21:11;21.10;99.90